sensor_id;sensor_type;location;lat;lon;timestamp;P1;durP1;ratioP1;P2;durP2;ratioP2
7128;SDS011;3606;52.930;8.644;2022-12-26T00:00:33;58.60;;;16.20;;
7128;SDS011;3606;52.930;8.644;2022-12-26T00:02:59;38.00;;;14.43;;
7128;SDS011;3606;52.930;8.644;2022-12-26T00:05:24;39.80;;;16.60;;
7128;SDS011;3606;52.930;8.644;2022-12-26T00:07:50;35.27;;;14.73;;
7128;SDS011;3606;52.930;8.644;2022-12-26T00:10:16;31.57;;;15.17;;
7128;SDS011;3606;52.930;8.644;2022-12-26T00:12:41;35.80;;;15.53;;
7128;SDS011;3606;52.930;8.644;2022-12-26T00:15:07;36.87;;;15.40;;
7128;SDS011;3606;52.930;8.644;2022-12-26T00:17:32;33.30;;;15.03;;
7128;SDS011;3606;52.930;8.644;2022-12-26T00:19:58;38.37;;;15.13;;
7128;SDS011;3606;52.930;8.644;2022-12-26T00:22:23;42.13;;;15.97;;
7128;SDS011;3606;52.930;8.644;2022-12-26T00:24:49;34.63;;;14.50;;
7128;SDS011;3606;52.930;8.644;2022-12-26T00:27:15;27.73;;;15.13;;
7128;SDS011;3606;52.930;8.644;2022-12-26T00:29:40;42.00;;;23.57;;
7128;SDS011;3606;52.930;8.644;2022-12-26T00:32:06;34.43;;;15.40;;
7128;SDS011;3606;52.930;8.644;2022-12-26T00:34:31;45.33;;;16.13;;
7128;SDS011;3606;52.930;8.644;2022-12-26T00:36:57;32.93;;;13.60;;
7128;SDS011;3606;52.930;8.644;2022-12-26T00:39:22;28.43;;;13.93;;
7128;SDS011;3606;52.930;8.644;2022-12-26T00:41:48;24.70;;;14.70;;
7128;SDS011;3606;52.930;8.644;2022-12-26T00:44:13;47.53;;;24.70;;
7128;SDS011;3606;52.930;8.644;2022-12-26T00:46:39;38.97;;;15.90;;
7128;SDS011;3606;52.930;8.644;2022-12-26T00:49:04;30.50;;;13.87;;
7128;SDS011;3606;52.930;8.644;2022-12-26T00:51:30;30.57;;;15.23;;
7128;SDS011;3606;52.930;8.644;2022-12-26T00:53:55;48.50;;;25.23;;
7128;SDS011;3606;52.930;8.644;2022-12-26T00:56:21;40.27;;;18.73;;
7128;SDS011;3606;52.930;8.644;2022-12-26T00:58:46;28.43;;;13.50;;
7128;SDS011;3606;52.930;8.644;2022-12-26T01:03:42;22.27;;;12.67;;
7128;SDS011;3606;52.930;8.644;2022-12-26T01:06:09;25.10;;;12.77;;
7128;SDS011;3606;52.930;8.644;2022-12-26T01:08:35;23.30;;;12.30;;
7128;SDS011;3606;52.930;8.644;2022-12-26T01:11:04;23.10;;;13.10;;
7128;SDS011;3606;52.930;8.644;2022-12-26T01:13:33;26.03;;;12.90;;
7128;SDS011;3606;52.930;8.644;2022-12-26T01:15:59;22.23;;;13.33;;
7128;SDS011;3606;52.930;8.644;2022-12-26T01:18:25;22.77;;;11.90;;
7128;SDS011;3606;52.930;8.644;2022-12-26T01:20:51;22.10;;;11.60;;
7128;SDS011;3606;52.930;8.644;2022-12-26T01:23:21;19.00;;;12.03;;
7128;SDS011;3606;52.930;8.644;2022-12-26T01:25:47;17.90;;;11.90;;
7128;SDS011;3606;52.930;8.644;2022-12-26T01:28:12;28.30;;;12.80;;
7128;SDS011;3606;52.930;8.644;2022-12-26T01:30:38;19.37;;;11.93;;
7128;SDS011;3606;52.930;8.644;2022-12-26T01:33:03;23.00;;;12.43;;
7128;SDS011;3606;52.930;8.644;2022-12-26T01:35:29;21.07;;;11.27;;
7128;SDS011;3606;52.930;8.644;2022-12-26T01:37:55;27.03;;;12.80;;
7128;SDS011;3606;52.930;8.644;2022-12-26T01:40:20;20.70;;;11.07;;
7128;SDS011;3606;52.930;8.644;2022-12-26T01:42:46;19.43;;;12.17;;
7128;SDS011;3606;52.930;8.644;2022-12-26T01:55:53;18.93;;;12.13;;
7128;SDS011;3606;52.930;8.644;2022-12-26T01:58:26;22.83;;;12.60;;
7128;SDS011;3606;52.930;8.644;2022-12-26T02:00:57;19.00;;;12.50;;
7128;SDS011;3606;52.930;8.644;2022-12-26T02:03:25;23.17;;;12.47;;
7128;SDS011;3606;52.930;8.644;2022-12-26T02:06:09;23.43;;;12.57;;
7128;SDS011;3606;52.930;8.644;2022-12-26T02:08:37;30.77;;;13.10;;
7128;SDS011;3606;52.930;8.644;2022-12-26T02:13:43;23.27;;;12.10;;
7128;SDS011;3606;52.930;8.644;2022-12-26T02:16:10;23.23;;;12.43;;
7128;SDS011;3606;52.930;8.644;2022-12-26T02:18:38;18.37;;;11.80;;
7128;SDS011;3606;52.930;8.644;2022-12-26T02:23:58;23.93;;;13.00;;
7128;SDS011;3606;52.930;8.644;2022-12-26T02:35:16;25.60;;;12.93;;
7128;SDS011;3606;52.930;8.644;2022-12-26T02:38:11;24.03;;;13.70;;
7128;SDS011;3606;52.930;8.644;2022-12-26T02:46:24;23.70;;;12.93;;
7128;SDS011;3606;52.930;8.644;2022-12-26T02:52:30;24.30;;;13.07;;
7128;SDS011;3606;52.930;8.644;2022-12-26T02:55:27;20.87;;;13.37;;
7128;SDS011;3606;52.930;8.644;2022-12-26T02:58:21;22.17;;;11.97;;
7128;SDS011;3606;52.930;8.644;2022-12-26T03:01:21;22.70;;;11.67;;
7128;SDS011;3606;52.930;8.644;2022-12-26T03:04:11;20.67;;;11.93;;
7128;SDS011;3606;52.930;8.644;2022-12-26T03:07:14;21.00;;;11.80;;
7128;SDS011;3606;52.930;8.644;2022-12-26T03:10:21;20.67;;;12.70;;
7128;SDS011;3606;52.930;8.644;2022-12-26T03:13:14;18.47;;;11.37;;
7128;SDS011;3606;52.930;8.644;2022-12-26T03:15:52;20.50;;;11.53;;
7128;SDS011;3606;52.930;8.644;2022-12-26T03:18:51;17.50;;;10.87;;
7128;SDS011;3606;52.930;8.644;2022-12-26T03:21:25;22.37;;;12.13;;
7128;SDS011;3606;52.930;8.644;2022-12-26T03:23:54;18.57;;;11.23;;
7128;SDS011;3606;52.930;8.644;2022-12-26T03:26:25;16.00;;;10.50;;
7128;SDS011;3606;52.930;8.644;2022-12-26T03:29:12;19.70;;;10.93;;
7128;SDS011;3606;52.930;8.644;2022-12-26T03:32:00;15.43;;;10.43;;
7128;SDS011;3606;52.930;8.644;2022-12-26T03:34:28;16.20;;;10.83;;
7128;SDS011;3606;52.930;8.644;2022-12-26T03:37:00;19.07;;;10.40;;
7128;SDS011;3606;52.930;8.644;2022-12-26T03:42:52;18.97;;;11.17;;
7128;SDS011;3606;52.930;8.644;2022-12-26T03:49:08;20.97;;;11.80;;
7128;SDS011;3606;52.930;8.644;2022-12-26T03:52:05;23.07;;;12.60;;
7128;SDS011;3606;52.930;8.644;2022-12-26T03:55:24;26.87;;;14.40;;
7128;SDS011;3606;52.930;8.644;2022-12-26T03:58:10;26.83;;;15.53;;
7128;SDS011;3606;52.930;8.644;2022-12-26T04:01:09;34.27;;;16.80;;
7128;SDS011;3606;52.930;8.644;2022-12-26T04:03:59;30.40;;;16.37;;
7128;SDS011;3606;52.930;8.644;2022-12-26T04:06:48;34.00;;;17.87;;
7128;SDS011;3606;52.930;8.644;2022-12-26T04:09:41;36.50;;;17.30;;
7128;SDS011;3606;52.930;8.644;2022-12-26T04:12:42;31.80;;;17.20;;
7128;SDS011;3606;52.930;8.644;2022-12-26T04:18:26;38.87;;;18.20;;
7128;SDS011;3606;52.930;8.644;2022-12-26T04:24:47;40.47;;;18.00;;
7128;SDS011;3606;52.930;8.644;2022-12-26T04:27:36;31.73;;;17.57;;
7128;SDS011;3606;52.930;8.644;2022-12-26T04:30:20;37.70;;;17.73;;
7128;SDS011;3606;52.930;8.644;2022-12-26T04:33:06;31.37;;;17.87;;
7128;SDS011;3606;52.930;8.644;2022-12-26T04:36:00;34.47;;;18.40;;
7128;SDS011;3606;52.930;8.644;2022-12-26T04:38:53;32.73;;;18.20;;
7128;SDS011;3606;52.930;8.644;2022-12-26T04:41:42;37.73;;;19.83;;
7128;SDS011;3606;52.930;8.644;2022-12-26T04:44:29;35.67;;;18.37;;
7128;SDS011;3606;52.930;8.644;2022-12-26T04:46:57;40.13;;;19.50;;
7128;SDS011;3606;52.930;8.644;2022-12-26T04:49:22;37.20;;;20.40;;
7128;SDS011;3606;52.930;8.644;2022-12-26T04:52:08;32.20;;;18.47;;
7128;SDS011;3606;52.930;8.644;2022-12-26T04:54:36;31.13;;;19.27;;
7128;SDS011;3606;52.930;8.644;2022-12-26T04:57:02;36.67;;;19.43;;
7128;SDS011;3606;52.930;8.644;2022-12-26T04:59:29;33.87;;;18.67;;
7128;SDS011;3606;52.930;8.644;2022-12-26T05:01:55;34.50;;;18.00;;
7128;SDS011;3606;52.930;8.644;2022-12-26T05:04:39;29.50;;;18.27;;
7128;SDS011;3606;52.930;8.644;2022-12-26T05:07:24;36.33;;;18.63;;
7128;SDS011;3606;52.930;8.644;2022-12-26T05:10:17;31.03;;;17.80;;
7128;SDS011;3606;52.930;8.644;2022-12-26T05:12:45;29.43;;;16.63;;
7128;SDS011;3606;52.930;8.644;2022-12-26T05:15:11;31.97;;;17.40;;
7128;SDS011;3606;52.930;8.644;2022-12-26T05:17:37;30.50;;;17.07;;
7128;SDS011;3606;52.930;8.644;2022-12-26T05:20:21;29.83;;;16.13;;
7128;SDS011;3606;52.930;8.644;2022-12-26T05:23:10;28.57;;;17.77;;
7128;SDS011;3606;52.930;8.644;2022-12-26T05:26:10;30.20;;;16.83;;
7128;SDS011;3606;52.930;8.644;2022-12-26T05:29:03;32.13;;;16.43;;
7128;SDS011;3606;52.930;8.644;2022-12-26T05:31:28;28.17;;;16.30;;
7128;SDS011;3606;52.930;8.644;2022-12-26T05:33:55;27.37;;;16.33;;
7128;SDS011;3606;52.930;8.644;2022-12-26T05:36:30;27.97;;;16.20;;
7128;SDS011;3606;52.930;8.644;2022-12-26T05:39:03;27.43;;;16.17;;
7128;SDS011;3606;52.930;8.644;2022-12-26T05:41:29;29.80;;;17.03;;
7128;SDS011;3606;52.930;8.644;2022-12-26T05:43:54;32.53;;;16.27;;
7128;SDS011;3606;52.930;8.644;2022-12-26T05:46:20;30.50;;;16.80;;
7128;SDS011;3606;52.930;8.644;2022-12-26T05:48:46;27.90;;;16.23;;
7128;SDS011;3606;52.930;8.644;2022-12-26T05:51:11;31.97;;;17.30;;
7128;SDS011;3606;52.930;8.644;2022-12-26T05:53:37;30.90;;;17.30;;
7128;SDS011;3606;52.930;8.644;2022-12-26T05:56:06;27.70;;;16.17;;
7128;SDS011;3606;52.930;8.644;2022-12-26T05:58:35;36.20;;;17.47;;
7128;SDS011;3606;52.930;8.644;2022-12-26T06:01:11;30.77;;;17.13;;
7128;SDS011;3606;52.930;8.644;2022-12-26T06:03:40;31.37;;;16.90;;
7128;SDS011;3606;52.930;8.644;2022-12-26T06:06:11;32.17;;;17.07;;
7128;SDS011;3606;52.930;8.644;2022-12-26T06:08:37;35.87;;;18.63;;
7128;SDS011;3606;52.930;8.644;2022-12-26T06:11:10;31.50;;;18.00;;
7128;SDS011;3606;52.930;8.644;2022-12-26T06:13:37;35.03;;;18.00;;
7128;SDS011;3606;52.930;8.644;2022-12-26T06:16:04;32.20;;;17.60;;
7128;SDS011;3606;52.930;8.644;2022-12-26T06:18:31;28.27;;;16.70;;
7128;SDS011;3606;52.930;8.644;2022-12-26T06:20:56;33.30;;;18.13;;
7128;SDS011;3606;52.930;8.644;2022-12-26T06:23:22;31.63;;;17.40;;
7128;SDS011;3606;52.930;8.644;2022-12-26T06:25:54;29.37;;;17.87;;
7128;SDS011;3606;52.930;8.644;2022-12-26T06:28:21;28.73;;;17.00;;
7128;SDS011;3606;52.930;8.644;2022-12-26T06:30:47;30.30;;;16.27;;
7128;SDS011;3606;52.930;8.644;2022-12-26T06:33:13;28.13;;;16.47;;
7128;SDS011;3606;52.930;8.644;2022-12-26T06:35:39;25.53;;;16.40;;
7128;SDS011;3606;52.930;8.644;2022-12-26T06:38:04;28.53;;;16.70;;
7128;SDS011;3606;52.930;8.644;2022-12-26T06:40:30;29.97;;;16.90;;
7128;SDS011;3606;52.930;8.644;2022-12-26T06:42:55;26.70;;;16.07;;
7128;SDS011;3606;52.930;8.644;2022-12-26T06:45:21;28.90;;;15.53;;
7128;SDS011;3606;52.930;8.644;2022-12-26T06:47:47;27.20;;;15.30;;
7128;SDS011;3606;52.930;8.644;2022-12-26T06:50:12;27.90;;;15.07;;
7128;SDS011;3606;52.930;8.644;2022-12-26T06:52:38;29.03;;;15.93;;
7128;SDS011;3606;52.930;8.644;2022-12-26T06:55:03;28.23;;;16.23;;
7128;SDS011;3606;52.930;8.644;2022-12-26T06:57:29;30.90;;;15.73;;
7128;SDS011;3606;52.930;8.644;2022-12-26T06:59:55;25.07;;;15.07;;
7128;SDS011;3606;52.930;8.644;2022-12-26T07:02:20;31.00;;;15.90;;
7128;SDS011;3606;52.930;8.644;2022-12-26T07:04:46;29.53;;;15.80;;
7128;SDS011;3606;52.930;8.644;2022-12-26T07:07:11;28.80;;;15.63;;
7128;SDS011;3606;52.930;8.644;2022-12-26T07:09:37;30.27;;;16.10;;
7128;SDS011;3606;52.930;8.644;2022-12-26T07:12:02;32.50;;;17.10;;
7128;SDS011;3606;52.930;8.644;2022-12-26T07:14:28;35.53;;;16.33;;
7128;SDS011;3606;52.930;8.644;2022-12-26T07:16:53;33.20;;;16.67;;
7128;SDS011;3606;52.930;8.644;2022-12-26T07:19:19;30.03;;;17.70;;
7128;SDS011;3606;52.930;8.644;2022-12-26T07:21:45;28.63;;;15.43;;
7128;SDS011;3606;52.930;8.644;2022-12-26T07:24:14;28.67;;;15.53;;
7128;SDS011;3606;52.930;8.644;2022-12-26T07:26:41;30.97;;;15.13;;
7128;SDS011;3606;52.930;8.644;2022-12-26T07:29:08;30.93;;;15.73;;
7128;SDS011;3606;52.930;8.644;2022-12-26T07:31:34;33.30;;;15.80;;
7128;SDS011;3606;52.930;8.644;2022-12-26T07:34:00;36.63;;;16.30;;
7128;SDS011;3606;52.930;8.644;2022-12-26T07:36:25;28.47;;;15.37;;
7128;SDS011;3606;52.930;8.644;2022-12-26T07:38:51;29.80;;;15.80;;
7128;SDS011;3606;52.930;8.644;2022-12-26T07:41:17;25.73;;;15.60;;
7128;SDS011;3606;52.930;8.644;2022-12-26T07:44:01;27.00;;;15.30;;
7128;SDS011;3606;52.930;8.644;2022-12-26T07:46:27;32.87;;;16.17;;
7128;SDS011;3606;52.930;8.644;2022-12-26T07:48:54;30.23;;;16.90;;
7128;SDS011;3606;52.930;8.644;2022-12-26T07:51:19;28.53;;;16.30;;
7128;SDS011;3606;52.930;8.644;2022-12-26T07:53:45;30.43;;;14.53;;
7128;SDS011;3606;52.930;8.644;2022-12-26T07:56:12;29.93;;;15.50;;
7128;SDS011;3606;52.930;8.644;2022-12-26T07:58:37;30.20;;;15.90;;
7128;SDS011;3606;52.930;8.644;2022-12-26T08:01:03;24.47;;;15.57;;
7128;SDS011;3606;52.930;8.644;2022-12-26T08:03:30;24.77;;;14.77;;
7128;SDS011;3606;52.930;8.644;2022-12-26T08:05:56;27.30;;;15.27;;
7128;SDS011;3606;52.930;8.644;2022-12-26T08:08:22;33.10;;;17.33;;
7128;SDS011;3606;52.930;8.644;2022-12-26T08:10:47;30.53;;;16.13;;
7128;SDS011;3606;52.930;8.644;2022-12-26T08:13:13;31.23;;;16.10;;
7128;SDS011;3606;52.930;8.644;2022-12-26T08:15:39;28.37;;;15.40;;
7128;SDS011;3606;52.930;8.644;2022-12-26T08:18:05;30.30;;;16.70;;
7128;SDS011;3606;52.930;8.644;2022-12-26T08:20:31;27.70;;;16.97;;
7128;SDS011;3606;52.930;8.644;2022-12-26T08:22:57;24.00;;;15.67;;
7128;SDS011;3606;52.930;8.644;2022-12-26T08:25:23;29.90;;;16.27;;
7128;SDS011;3606;52.930;8.644;2022-12-26T08:27:48;27.33;;;16.67;;
7128;SDS011;3606;52.930;8.644;2022-12-26T08:30:14;33.00;;;16.83;;
7128;SDS011;3606;52.930;8.644;2022-12-26T08:32:39;31.47;;;16.13;;
7128;SDS011;3606;52.930;8.644;2022-12-26T08:35:05;30.40;;;16.93;;
7128;SDS011;3606;52.930;8.644;2022-12-26T08:37:31;30.60;;;17.97;;
7128;SDS011;3606;52.930;8.644;2022-12-26T08:39:57;32.33;;;17.50;;
7128;SDS011;3606;52.930;8.644;2022-12-26T08:42:22;34.17;;;17.50;;
7128;SDS011;3606;52.930;8.644;2022-12-26T08:44:48;25.27;;;16.77;;
7128;SDS011;3606;52.930;8.644;2022-12-26T08:47:14;34.40;;;17.23;;
7128;SDS011;3606;52.930;8.644;2022-12-26T08:49:40;28.03;;;16.60;;
7128;SDS011;3606;52.930;8.644;2022-12-26T08:52:05;28.43;;;16.67;;
7128;SDS011;3606;52.930;8.644;2022-12-26T08:54:31;25.93;;;16.70;;
7128;SDS011;3606;52.930;8.644;2022-12-26T08:56:57;26.77;;;16.20;;
7128;SDS011;3606;52.930;8.644;2022-12-26T08:59:22;30.80;;;17.87;;
7128;SDS011;3606;52.930;8.644;2022-12-26T09:01:48;32.40;;;15.50;;
7128;SDS011;3606;52.930;8.644;2022-12-26T09:04:13;31.03;;;17.40;;
7128;SDS011;3606;52.930;8.644;2022-12-26T09:06:39;28.63;;;17.43;;
7128;SDS011;3606;52.930;8.644;2022-12-26T09:09:06;36.20;;;17.47;;
7128;SDS011;3606;52.930;8.644;2022-12-26T09:11:33;32.13;;;17.20;;
7128;SDS011;3606;52.930;8.644;2022-12-26T09:13:59;32.13;;;18.80;;
7128;SDS011;3606;52.930;8.644;2022-12-26T09:16:27;29.17;;;17.77;;
7128;SDS011;3606;52.930;8.644;2022-12-26T09:18:56;28.93;;;17.60;;
7128;SDS011;3606;52.930;8.644;2022-12-26T09:21:24;25.93;;;15.03;;
7128;SDS011;3606;52.930;8.644;2022-12-26T09:23:54;25.67;;;16.13;;
7128;SDS011;3606;52.930;8.644;2022-12-26T09:26:24;31.80;;;16.27;;
7128;SDS011;3606;52.930;8.644;2022-12-26T09:28:50;26.87;;;16.73;;
7128;SDS011;3606;52.930;8.644;2022-12-26T09:31:17;26.53;;;16.03;;
7128;SDS011;3606;52.930;8.644;2022-12-26T09:33:45;31.50;;;16.13;;
7128;SDS011;3606;52.930;8.644;2022-12-26T09:36:12;23.40;;;14.90;;
7128;SDS011;3606;52.930;8.644;2022-12-26T09:38:39;27.10;;;15.90;;
7128;SDS011;3606;52.930;8.644;2022-12-26T09:52:47;23.07;;;12.80;;
7128;SDS011;3606;52.930;8.644;2022-12-26T09:55:18;18.77;;;12.03;;
7128;SDS011;3606;52.930;8.644;2022-12-26T09:57:50;19.97;;;11.80;;
7128;SDS011;3606;52.930;8.644;2022-12-26T10:00:20;17.03;;;11.57;;
7128;SDS011;3606;52.930;8.644;2022-12-26T10:02:50;20.17;;;12.67;;
7128;SDS011;3606;52.930;8.644;2022-12-26T10:05:19;16.57;;;11.10;;
7128;SDS011;3606;52.930;8.644;2022-12-26T10:07:49;17.03;;;11.17;;
7128;SDS011;3606;52.930;8.644;2022-12-26T10:10:27;16.87;;;10.43;;
7128;SDS011;3606;52.930;8.644;2022-12-26T10:13:11;13.43;;;9.77;;
7128;SDS011;3606;52.930;8.644;2022-12-26T10:15:57;13.83;;;9.30;;
7128;SDS011;3606;52.930;8.644;2022-12-26T10:18:43;16.70;;;9.00;;
7128;SDS011;3606;52.930;8.644;2022-12-26T10:21:25;13.87;;;8.80;;
7128;SDS011;3606;52.930;8.644;2022-12-26T10:23:57;18.67;;;12.10;;
7128;SDS011;3606;52.930;8.644;2022-12-26T10:26:30;9.83;;;8.27;;
7128;SDS011;3606;52.930;8.644;2022-12-26T10:29:18;14.20;;;9.13;;
7128;SDS011;3606;52.930;8.644;2022-12-26T10:31:52;12.23;;;8.30;;
7128;SDS011;3606;52.930;8.644;2022-12-26T10:34:22;10.93;;;8.60;;
7128;SDS011;3606;52.930;8.644;2022-12-26T10:36:50;11.33;;;7.60;;
7128;SDS011;3606;52.930;8.644;2022-12-26T10:39:27;16.20;;;10.53;;
7128;SDS011;3606;52.930;8.644;2022-12-26T10:44:45;19.20;;;11.50;;
7128;SDS011;3606;52.930;8.644;2022-12-26T10:47:26;11.50;;;7.30;;
7128;SDS011;3606;52.930;8.644;2022-12-26T10:50:03;11.83;;;6.97;;
7128;SDS011;3606;52.930;8.644;2022-12-26T10:52:34;21.97;;;13.77;;
7128;SDS011;3606;52.930;8.644;2022-12-26T10:55:04;10.83;;;6.33;;
7128;SDS011;3606;52.930;8.644;2022-12-26T10:57:31;9.83;;;6.20;;
7128;SDS011;3606;52.930;8.644;2022-12-26T10:59:59;11.37;;;8.83;;
7128;SDS011;3606;52.930;8.644;2022-12-26T11:02:29;11.67;;;6.40;;
7128;SDS011;3606;52.930;8.644;2022-12-26T11:04:57;11.50;;;8.57;;
7128;SDS011;3606;52.930;8.644;2022-12-26T11:07:24;10.67;;;8.60;;
7128;SDS011;3606;52.930;8.644;2022-12-26T11:09:51;10.50;;;5.83;;
7128;SDS011;3606;52.930;8.644;2022-12-26T11:14:58;8.60;;;6.00;;
7128;SDS011;3606;52.930;8.644;2022-12-26T11:17:32;13.67;;;5.47;;
7128;SDS011;3606;52.930;8.644;2022-12-26T11:22:44;7.97;;;5.20;;
7128;SDS011;3606;52.930;8.644;2022-12-26T11:27:51;8.10;;;5.37;;
7128;SDS011;3606;52.930;8.644;2022-12-26T11:30:23;10.23;;;5.93;;
7128;SDS011;3606;52.930;8.644;2022-12-26T11:32:51;5.70;;;4.63;;
7128;SDS011;3606;52.930;8.644;2022-12-26T11:35:30;10.37;;;6.17;;
7128;SDS011;3606;52.930;8.644;2022-12-26T11:38:01;24.63;;;14.43;;
7128;SDS011;3606;52.930;8.644;2022-12-26T11:40:38;13.80;;;7.87;;
7128;SDS011;3606;52.930;8.644;2022-12-26T11:43:30;9.60;;;5.73;;
7128;SDS011;3606;52.930;8.644;2022-12-26T11:45:57;11.27;;;5.77;;
7128;SDS011;3606;52.930;8.644;2022-12-26T11:48:24;12.27;;;6.23;;
7128;SDS011;3606;52.930;8.644;2022-12-26T11:50:51;14.60;;;5.30;;
7128;SDS011;3606;52.930;8.644;2022-12-26T11:53:18;8.00;;;5.67;;
7128;SDS011;3606;52.930;8.644;2022-12-26T11:55:56;7.37;;;5.27;;
7128;SDS011;3606;52.930;8.644;2022-12-26T11:58:24;7.50;;;5.10;;
7128;SDS011;3606;52.930;8.644;2022-12-26T12:06:21;8.07;;;4.73;;
7128;SDS011;3606;52.930;8.644;2022-12-26T12:19:59;9.03;;;4.10;;
7128;SDS011;3606;52.930;8.644;2022-12-26T12:25:38;8.67;;;5.20;;
7128;SDS011;3606;52.930;8.644;2022-12-26T12:34:12;5.93;;;4.13;;
7128;SDS011;3606;52.930;8.644;2022-12-26T12:39:14;7.27;;;3.30;;
7128;SDS011;3606;52.930;8.644;2022-12-26T12:44:14;5.43;;;2.30;;
7128;SDS011;3606;52.930;8.644;2022-12-26T12:46:57;3.63;;;2.10;;
7128;SDS011;3606;52.930;8.644;2022-12-26T13:00:26;4.13;;;1.80;;
7128;SDS011;3606;52.930;8.644;2022-12-26T13:03:01;5.57;;;1.27;;
7128;SDS011;3606;52.930;8.644;2022-12-26T13:11:19;3.13;;;1.50;;
7128;SDS011;3606;52.930;8.644;2022-12-26T13:17:13;2.87;;;1.70;;
7128;SDS011;3606;52.930;8.644;2022-12-26T13:22:53;1.70;;;1.27;;
7128;SDS011;3606;52.930;8.644;2022-12-26T13:25:46;3.60;;;1.70;;
7128;SDS011;3606;52.930;8.644;2022-12-26T13:28:21;1.87;;;0.83;;
7128;SDS011;3606;52.930;8.644;2022-12-26T13:30:52;2.33;;;1.20;;
7128;SDS011;3606;52.930;8.644;2022-12-26T13:33:18;1.40;;;1.03;;
7128;SDS011;3606;52.930;8.644;2022-12-26T13:36:01;9.90;;;2.50;;
7128;SDS011;3606;52.930;8.644;2022-12-26T13:39:12;0.70;;;0.70;;
7128;SDS011;3606;52.930;8.644;2022-12-26T13:41:22;2.10;;;0.97;;
7128;SDS011;3606;52.930;8.644;2022-12-26T13:49:25;13.60;;;7.03;;
7128;SDS011;3606;52.930;8.644;2022-12-26T14:00:16;3.23;;;1.60;;
7128;SDS011;3606;52.930;8.644;2022-12-26T14:18:53;4.00;;;2.03;;
7128;SDS011;3606;52.930;8.644;2022-12-26T14:21:56;3.20;;;2.30;;
7128;SDS011;3606;52.930;8.644;2022-12-26T14:24:37;2.73;;;1.33;;
7128;SDS011;3606;52.930;8.644;2022-12-26T14:35:56;9.83;;;5.13;;
7128;SDS011;3606;52.930;8.644;2022-12-26T14:39:31;2.83;;;1.40;;
7128;SDS011;3606;52.930;8.644;2022-12-26T14:41:26;8.03;;;2.07;;
7128;SDS011;3606;52.930;8.644;2022-12-26T14:49:18;4.43;;;1.77;;
7128;SDS011;3606;52.930;8.644;2022-12-26T14:54:52;7.10;;;1.93;;
7128;SDS011;3606;52.930;8.644;2022-12-26T14:57:38;7.50;;;1.80;;
7128;SDS011;3606;52.930;8.644;2022-12-26T15:02:47;6.40;;;3.53;;
7128;SDS011;3606;52.930;8.644;2022-12-26T15:05:20;9.33;;;2.30;;
7128;SDS011;3606;52.930;8.644;2022-12-26T15:08:53;7.70;;;3.10;;
7128;SDS011;3606;52.930;8.644;2022-12-26T15:14:38;9.23;;;3.30;;
7128;SDS011;3606;52.930;8.644;2022-12-26T15:20:32;11.47;;;3.63;;
7128;SDS011;3606;52.930;8.644;2022-12-26T15:35:12;8.57;;;2.80;;
7128;SDS011;3606;52.930;8.644;2022-12-26T15:37:43;9.63;;;2.60;;
7128;SDS011;3606;52.930;8.644;2022-12-26T15:40:36;6.70;;;2.57;;
7128;SDS011;3606;52.930;8.644;2022-12-26T15:43:27;7.57;;;2.57;;
7128;SDS011;3606;52.930;8.644;2022-12-26T15:46:17;6.30;;;2.13;;
7128;SDS011;3606;52.930;8.644;2022-12-26T15:49:56;7.17;;;2.50;;
7128;SDS011;3606;52.930;8.644;2022-12-26T15:52:05;7.63;;;2.97;;
7128;SDS011;3606;52.930;8.644;2022-12-26T15:54:58;13.43;;;3.53;;
7128;SDS011;3606;52.930;8.644;2022-12-26T15:57:44;8.10;;;3.27;;
7128;SDS011;3606;52.930;8.644;2022-12-26T16:00:32;8.60;;;3.30;;
7128;SDS011;3606;52.930;8.644;2022-12-26T16:03:05;13.23;;;3.33;;
7128;SDS011;3606;52.930;8.644;2022-12-26T16:05:54;14.63;;;3.20;;
7128;SDS011;3606;52.930;8.644;2022-12-26T16:14:08;10.80;;;3.03;;
7128;SDS011;3606;52.930;8.644;2022-12-26T16:16:47;13.13;;;3.60;;
7128;SDS011;3606;52.930;8.644;2022-12-26T16:19:14;16.67;;;3.77;;
7128;SDS011;3606;52.930;8.644;2022-12-26T16:21:41;11.37;;;4.10;;
7128;SDS011;3606;52.930;8.644;2022-12-26T16:24:43;12.53;;;3.33;;
7128;SDS011;3606;52.930;8.644;2022-12-26T16:27:13;21.67;;;7.37;;
7128;SDS011;3606;52.930;8.644;2022-12-26T16:30:00;9.83;;;3.97;;
7128;SDS011;3606;52.930;8.644;2022-12-26T16:32:29;9.70;;;2.70;;
7128;SDS011;3606;52.930;8.644;2022-12-26T16:34:58;8.43;;;2.77;;
7128;SDS011;3606;52.930;8.644;2022-12-26T16:37:25;11.77;;;2.90;;
7128;SDS011;3606;52.930;8.644;2022-12-26T16:40:04;11.43;;;3.20;;
7128;SDS011;3606;52.930;8.644;2022-12-26T16:42:36;9.90;;;3.30;;
7128;SDS011;3606;52.930;8.644;2022-12-26T16:45:05;10.47;;;2.70;;
7128;SDS011;3606;52.930;8.644;2022-12-26T16:47:42;9.20;;;2.63;;
7128;SDS011;3606;52.930;8.644;2022-12-26T16:50:13;11.13;;;2.70;;
7128;SDS011;3606;52.930;8.644;2022-12-26T16:52:44;5.80;;;2.27;;
7128;SDS011;3606;52.930;8.644;2022-12-26T16:57:55;5.13;;;2.10;;
7128;SDS011;3606;52.930;8.644;2022-12-26T17:00:23;6.33;;;2.60;;
7128;SDS011;3606;52.930;8.644;2022-12-26T17:02:51;5.93;;;2.40;;
7128;SDS011;3606;52.930;8.644;2022-12-26T17:05:25;5.87;;;2.23;;
7128;SDS011;3606;52.930;8.644;2022-12-26T17:07:54;10.03;;;3.57;;
7128;SDS011;3606;52.930;8.644;2022-12-26T17:10:26;9.43;;;2.70;;
7128;SDS011;3606;52.930;8.644;2022-12-26T17:13:01;10.43;;;3.50;;
7128;SDS011;3606;52.930;8.644;2022-12-26T17:15:31;16.53;;;3.00;;
7128;SDS011;3606;52.930;8.644;2022-12-26T17:18:24;10.93;;;2.97;;
7128;SDS011;3606;52.930;8.644;2022-12-26T17:21:19;7.17;;;2.67;;
7128;SDS011;3606;52.930;8.644;2022-12-26T17:24:00;11.47;;;3.43;;
7128;SDS011;3606;52.930;8.644;2022-12-26T17:26:33;8.93;;;2.37;;
7128;SDS011;3606;52.930;8.644;2022-12-26T17:29:01;13.37;;;2.90;;
7128;SDS011;3606;52.930;8.644;2022-12-26T17:31:37;8.57;;;3.03;;
7128;SDS011;3606;52.930;8.644;2022-12-26T17:34:22;8.67;;;2.63;;
7128;SDS011;3606;52.930;8.644;2022-12-26T17:36:50;9.13;;;3.20;;
7128;SDS011;3606;52.930;8.644;2022-12-26T17:39:20;9.67;;;2.60;;
7128;SDS011;3606;52.930;8.644;2022-12-26T17:41:52;9.33;;;2.43;;
7128;SDS011;3606;52.930;8.644;2022-12-26T17:44:33;10.43;;;3.00;;
7128;SDS011;3606;52.930;8.644;2022-12-26T17:49:43;10.23;;;2.83;;
7128;SDS011;3606;52.930;8.644;2022-12-26T17:52:11;21.17;;;3.50;;
7128;SDS011;3606;52.930;8.644;2022-12-26T17:54:38;12.10;;;2.87;;
7128;SDS011;3606;52.930;8.644;2022-12-26T17:57:04;10.37;;;3.77;;
7128;SDS011;3606;52.930;8.644;2022-12-26T17:59:29;12.67;;;3.10;;
7128;SDS011;3606;52.930;8.644;2022-12-26T18:01:55;10.47;;;3.10;;
7128;SDS011;3606;52.930;8.644;2022-12-26T18:04:20;4.77;;;2.37;;
7128;SDS011;3606;52.930;8.644;2022-12-26T18:06:46;10.17;;;3.00;;
7128;SDS011;3606;52.930;8.644;2022-12-26T18:09:17;10.77;;;3.73;;
7128;SDS011;3606;52.930;8.644;2022-12-26T18:11:49;10.30;;;2.80;;
7128;SDS011;3606;52.930;8.644;2022-12-26T18:14:15;18.03;;;3.57;;
7128;SDS011;3606;52.930;8.644;2022-12-26T18:16:40;5.90;;;3.33;;
7128;SDS011;3606;52.930;8.644;2022-12-26T18:19:07;10.30;;;3.70;;
7128;SDS011;3606;52.930;8.644;2022-12-26T18:21:37;12.97;;;4.27;;
7128;SDS011;3606;52.930;8.644;2022-12-26T18:24:03;17.80;;;4.60;;
7128;SDS011;3606;52.930;8.644;2022-12-26T18:26:28;8.87;;;3.70;;
7128;SDS011;3606;52.930;8.644;2022-12-26T18:28:55;11.77;;;3.90;;
7128;SDS011;3606;52.930;8.644;2022-12-26T18:31:21;12.10;;;4.00;;
7128;SDS011;3606;52.930;8.644;2022-12-26T18:33:47;20.87;;;3.67;;
7128;SDS011;3606;52.930;8.644;2022-12-26T18:36:13;12.33;;;3.73;;
7128;SDS011;3606;52.930;8.644;2022-12-26T18:38:39;8.97;;;3.40;;
7128;SDS011;3606;52.930;8.644;2022-12-26T18:41:05;6.10;;;2.90;;
7128;SDS011;3606;52.930;8.644;2022-12-26T18:43:31;15.40;;;3.20;;
7128;SDS011;3606;52.930;8.644;2022-12-26T18:45:56;10.47;;;2.90;;
7128;SDS011;3606;52.930;8.644;2022-12-26T18:48:22;10.33;;;2.87;;
7128;SDS011;3606;52.930;8.644;2022-12-26T18:50:48;8.73;;;2.97;;
7128;SDS011;3606;52.930;8.644;2022-12-26T18:53:14;11.17;;;3.23;;